Time;durP1;ratioP1;P1;durP2;ratioP2;P2;SDS_P1;SDS_P2;PMS_P1;PMS_P2;Temp;Humidity;BMP_temperature;BMP_pressure;BME280_temperature;BME280_humidity;BME280_pressure;Samples;Min_cycle;Max_cycle;Signal;HPM_P1;HPM_P2
2021/06/23 00:01:37;;;;;;;9.90;5.82;;;;;;;;;;5017321;28;20025;-76
2021/06/23 00:04:02;;;;;;;8.35;5.85;;;;;;;;;;5025772;28;20021;-77
2021/06/23 00:06:28;;;;;;;10.25;5.68;;;;;;;;;;5005214;28;20447;-77
2021/06/23 00:08:53;;;;;;;7.70;5.28;;;;;;;;;;4999581;28;20033;-77
2021/06/23 00:11:19;;;;;;;9.43;4.80;;;;;;;;;;5018903;28;20049;-77
2021/06/23 00:13:45;;;;;;;9.85;5.40;;;;;;;;;;5013309;28;20052;-76
2021/06/23 00:16:11;;;;;;;6.50;5.38;;;;;;;;;;5019019;28;20021;-77
2021/06/23 00:18:37;;;;;;;9.70;6.25;;;;;;;;;;5007140;28;20091;-77
2021/06/23 00:21:03;;;;;;;8.27;6.25;;;;;;;;;;5004109;28;20030;-77
2021/06/23 00:23:28;;;;;;;8.35;6.53;;;;;;;;;;5004151;28;20029;-77
2021/06/23 00:25:55;;;;;;;12.38;6.03;;;;;;;;;;5020276;28;20032;-75
2021/06/23 00:28:21;;;;;;;7.95;6.03;;;;;;;;;;5004694;28;20033;-76
2021/06/23 00:30:47;;;;;;;10.35;6.32;;;;;;;;;;5004549;28;20026;-76
2021/06/23 00:33:18;;;;;;;11.20;7.47;;;;;;;;;;5003979;28;20026;-75
2021/06/23 00:35:44;;;;;;;7.93;5.45;;;;;;;;;;5015677;28;20496;-75
2021/06/23 00:38:09;;;;;;;10.48;8.45;;;;;;;;;;5017247;28;20038;-76
2021/06/23 00:40:35;;;;;;;14.68;10.57;;;;;;;;;;4995591;28;20049;-77
2021/06/23 00:43:02;;;;;;;9.63;7.28;;;;;;;;;;5001770;28;20084;-77
2021/06/23 00:45:29;;;;;;;8.30;6.38;;;;;;;;;;5005607;28;20022;-77
2021/06/23 00:47:56;;;;;;;11.43;6.70;;;;;;;;;;5018973;28;20022;-76
2021/06/23 00:50:21;;;;;;;11.10;7.47;;;;;;;;;;5004267;28;20178;-77
2021/06/23 00:52:47;;;;;;;13.15;7.72;;;;;;;;;;5004883;28;20845;-77
2021/06/23 00:55:20;;;;;;;12.55;8.13;;;;;;;;;;5005361;28;20088;-76
2021/06/23 00:57:48;;;;;;;15.27;9.98;;;;;;;;;;5004145;28;20018;-77
2021/06/23 01:00:17;;;;;;;11.25;7.63;;;;;;;;;;5003350;28;20033;-78
2021/06/23 01:02:42;;;;;;;10.70;7.82;;;;;;;;;;4989160;28;20171;-76
2021/06/23 01:05:08;;;;;;;17.50;9.10;;;;;;;;;;5005141;28;20560;-76
2021/06/23 01:07:34;;;;;;;14.00;10.80;;;;;;;;;;5004384;28;20022;-76
2021/06/23 01:09:59;;;;;;;12.10;8.80;;;;;;;;;;5005340;28;20056;-75
2021/06/23 01:12:27;;;;;;;10.77;7.57;;;;;;;;;;5006823;28;20022;-76
2021/06/23 01:14:54;;;;;;;16.13;8.95;;;;;;;;;;5004161;28;20022;-75
2021/06/23 01:17:21;;;;;;;10.38;8.50;;;;;;;;;;5003801;28;20488;-76
2021/06/23 01:19:47;;;;;;;19.95;9.45;;;;;;;;;;5005066;28;20033;-78
2021/06/23 01:22:15;;;;;;;11.07;9.40;;;;;;;;;;5005680;28;20429;-75
2021/06/23 01:24:41;;;;;;;13.77;8.90;;;;;;;;;;5004160;28;20032;-76
2021/06/23 01:27:07;;;;;;;12.52;9.07;;;;;;;;;;5004096;28;20014;-77
2021/06/23 01:29:32;;;;;;;14.65;9.65;;;;;;;;;;5003744;28;20026;-76
2021/06/23 01:31:58;;;;;;;11.10;8.90;;;;;;;;;;5020315;28;20029;-75
2021/06/23 01:34:23;;;;;;;14.18;9.85;;;;;;;;;;5019650;28;20045;-76
2021/06/23 01:36:50;;;;;;;11.35;8.73;;;;;;;;;;5003656;28;20107;-76
2021/06/23 01:39:15;;;;;;;14.57;9.55;;;;;;;;;;5002146;28;20053;-75
2021/06/23 01:41:41;;;;;;;13.82;9.93;;;;;;;;;;5004609;28;20675;-77
2021/06/23 01:44:06;;;;;;;14.30;9.73;;;;;;;;;;5003568;28;20116;-75
2021/06/23 01:46:32;;;;;;;13.77;9.70;;;;;;;;;;5006992;28;20022;-75
2021/06/23 01:48:57;;;;;;;15.95;10.25;;;;;;;;;;5024134;28;20029;-76
2021/06/23 01:51:23;;;;;;;16.55;9.77;;;;;;;;;;5017473;28;20025;-75
2021/06/23 01:53:49;;;;;;;12.35;9.68;;;;;;;;;;5018868;28;20030;-76
2021/06/23 01:56:14;;;;;;;17.27;10.23;;;;;;;;;;5004162;28;20512;-75
2021/06/23 01:58:42;;;;;;;18.20;10.85;;;;;;;;;;5004211;28;20562;-75
2021/06/23 02:01:19;;;;;;;14.93;10.43;;;;;;;;;;5003603;28;20033;-76
2021/06/23 02:03:53;;;;;;;16.33;11.73;;;;;;;;;;5000854;28;20084;-75
2021/06/23 02:06:27;;;;;;;16.15;12.35;;;;;;;;;;5003505;28;20026;-75
2021/06/23 02:09:02;;;;;;;16.33;9.90;;;;;;;;;;5003825;28;20048;-75
2021/06/23 02:11:27;;;;;;;15.75;10.48;;;;;;;;;;5022853;28;20033;-75
2021/06/23 02:14:11;;;;;;;17.30;11.13;;;;;;;;;;5006037;28;20037;-75
2021/06/23 02:16:38;;;;;;;18.05;10.98;;;;;;;;;;5003823;28;20057;-75
2021/06/23 02:19:06;;;;;;;18.65;12.63;;;;;;;;;;5003772;28;20718;-75
2021/06/23 02:21:37;;;;;;;15.13;11.38;;;;;;;;;;5004432;28;20034;-76
2021/06/23 02:24:03;;;;;;;18.13;12.05;;;;;;;;;;5003757;28;20028;-75
2021/06/23 02:26:29;;;;;;;20.70;12.65;;;;;;;;;;5004488;28;20034;-75
2021/06/23 02:28:54;;;;;;;17.17;12.23;;;;;;;;;;5002722;28;20033;-76
2021/06/23 02:31:20;;;;;;;17.25;11.25;;;;;;;;;;5004469;28;20056;-76
2021/06/23 02:33:46;;;;;;;17.58;12.50;;;;;;;;;;5004078;28;20026;-76
2021/06/23 02:36:12;;;;;;;19.23;11.60;;;;;;;;;;5019371;28;20513;-76
2021/06/23 02:38:39;;;;;;;17.70;11.50;;;;;;;;;;5010620;28;20121;-75
2021/06/23 02:41:05;;;;;;;18.20;12.63;;;;;;;;;;5007045;28;20049;-76
2021/06/23 02:43:30;;;;;;;18.90;13.13;;;;;;;;;;5008172;28;20029;-75
2021/06/23 02:45:57;;;;;;;13.65;10.18;;;;;;;;;;5021693;28;20018;-75
2021/06/23 02:48:26;;;;;;;15.32;11.80;;;;;;;;;;5008596;28;20464;-75
2021/06/23 02:51:01;;;;;;;19.05;11.52;;;;;;;;;;5007251;28;20029;-76
2021/06/23 02:53:29;;;;;;;18.65;12.95;;;;;;;;;;5006227;28;20048;-76
2021/06/23 02:55:55;;;;;;;17.75;11.40;;;;;;;;;;5004782;28;20033;-75
2021/06/23 02:58:21;;;;;;;20.20;14.23;;;;;;;;;;5005975;28;20116;-75
2021/06/23 03:00:46;;;;;;;23.05;13.77;;;;;;;;;;5022914;28;20109;-75
2021/06/23 03:03:11;;;;;;;23.65;15.73;;;;;;;;;;5007083;28;20477;-75
2021/06/23 03:05:37;;;;;;;24.05;14.52;;;;;;;;;;5005693;28;20030;-75
2021/06/23 03:08:03;;;;;;;25.95;14.93;;;;;;;;;;5008792;28;20796;-76
2021/06/23 03:10:28;;;;;;;22.70;15.02;;;;;;;;;;5021835;28;20026;-75
2021/06/23 03:12:53;;;;;;;26.20;16.98;;;;;;;;;;5029339;28;20014;-75
2021/06/23 03:15:19;;;;;;;26.73;15.88;;;;;;;;;;5007252;28;20026;-76
2021/06/23 03:17:44;;;;;;;24.90;15.43;;;;;;;;;;5003053;28;20021;-75
2021/06/23 03:20:10;;;;;;;26.15;16.02;;;;;;;;;;5006826;28;20095;-76
2021/06/23 03:22:36;;;;;;;23.52;15.48;;;;;;;;;;5006731;28;20033;-75
2021/06/23 03:25:01;;;;;;;21.48;14.75;;;;;;;;;;5006414;28;20084;-75
2021/06/23 03:27:27;;;;;;;27.88;15.70;;;;;;;;;;5006231;28;20029;-76
2021/06/23 03:29:52;;;;;;;20.98;14.50;;;;;;;;;;5021394;28;20030;-73
2021/06/23 03:32:18;;;;;;;22.55;14.60;;;;;;;;;;5005635;28;20563;-76
2021/06/23 03:34:43;;;;;;;24.08;15.32;;;;;;;;;;5006133;28;20025;-77
2021/06/23 03:37:09;;;;;;;19.63;14.20;;;;;;;;;;5006787;28;20455;-75
2021/06/23 03:39:35;;;;;;;21.38;13.93;;;;;;;;;;5004979;28;20090;-76
2021/06/23 03:42:00;;;;;;;21.48;13.73;;;;;;;;;;5004111;28;20038;-76
2021/06/23 03:44:26;;;;;;;22.38;14.07;;;;;;;;;;5004326;28;20037;-75
2021/06/23 03:46:52;;;;;;;19.20;13.70;;;;;;;;;;5004057;28;20552;-75
2021/06/23 03:49:18;;;;;;;18.25;13.38;;;;;;;;;;5005052;28;20018;-75
2021/06/23 03:51:44;;;;;;;20.67;14.23;;;;;;;;;;5003905;28;20030;-75
2021/06/23 03:54:09;;;;;;;20.75;14.00;;;;;;;;;;5005019;28;20033;-76
2021/06/23 03:56:34;;;;;;;18.02;13.18;;;;;;;;;;5019209;28;20032;-75
2021/06/23 03:59:00;;;;;;;20.27;14.43;;;;;;;;;;5003859;28;20030;-75
2021/06/23 04:01:25;;;;;;;24.90;14.93;;;;;;;;;;5003531;28;20033;-75
2021/06/23 04:03:50;;;;;;;32.88;18.60;;;;;;;;;;5003653;28;20512;-77
2021/06/23 04:06:16;;;;;;;34.65;22.00;;;;;;;;;;5004268;28;20067;-76
2021/06/23 04:08:41;;;;;;;43.03;24.40;;;;;;;;;;5001797;28;20029;-75
2021/06/23 04:11:07;;;;;;;38.03;22.77;;;;;;;;;;5004719;28;20034;-77
2021/06/23 04:13:32;;;;;;;29.13;18.80;;;;;;;;;;5005012;28;20033;-75
2021/06/23 04:15:57;;;;;;;34.17;21.75;;;;;;;;;;5000941;28;20052;-76
2021/06/23 04:18:23;;;;;;;40.35;24.80;;;;;;;;;;5004162;28;20665;-76
2021/06/23 04:20:48;;;;;;;44.45;26.23;;;;;;;;;;5019576;28;20463;-76
2021/06/23 04:23:13;;;;;;;40.28;24.67;;;;;;;;;;5005766;28;20480;-76
2021/06/23 04:25:39;;;;;;;40.45;23.75;;;;;;;;;;5005196;28;20485;-75
2021/06/23 04:28:04;;;;;;;38.90;24.25;;;;;;;;;;5004866;28;20022;-76
2021/06/23 04:30:29;;;;;;;50.30;26.65;;;;;;;;;;5003647;28;20026;-76
2021/06/23 04:32:55;;;;;;;37.95;23.27;;;;;;;;;;5003875;28;20026;-75
2021/06/23 04:35:21;;;;;;;36.67;21.25;;;;;;;;;;5002947;28;20036;-76
2021/06/23 04:37:46;;;;;;;35.88;22.60;;;;;;;;;;5003610;28;20029;-76
2021/06/23 04:40:14;;;;;;;32.17;21.27;;;;;;;;;;5016620;28;20037;-76
2021/06/23 04:42:40;;;;;;;42.65;23.38;;;;;;;;;;4993511;28;20072;-75
2021/06/23 04:45:09;;;;;;;36.28;22.55;;;;;;;;;;5013727;28;20588;-75
2021/06/23 04:47:35;;;;;;;32.17;19.58;;;;;;;;;;5003498;28;20096;-76
2021/06/23 04:50:00;;;;;;;31.27;19.10;;;;;;;;;;5003078;28;20825;-76
2021/06/23 04:52:26;;;;;;;30.50;20.05;;;;;;;;;;5002665;28;20121;-76
2021/06/23 04:54:51;;;;;;;33.65;19.92;;;;;;;;;;5003496;28;20029;-76
2021/06/23 04:57:17;;;;;;;25.92;17.80;;;;;;;;;;5001784;28;20104;-76
2021/06/23 04:59:43;;;;;;;28.95;18.38;;;;;;;;;;5001219;28;20077;-76
2021/06/23 05:02:10;;;;;;;24.48;17.92;;;;;;;;;;4997703;28;20448;-77
2021/06/23 05:04:36;;;;;;;22.70;17.40;;;;;;;;;;5002558;28;20034;-75
2021/06/23 05:07:07;;;;;;;23.92;16.60;;;;;;;;;;5002721;28;20017;-76
2021/06/23 05:09:33;;;;;;;25.40;16.98;;;;;;;;;;5002086;28;20030;-76
2021/06/23 05:11:58;;;;;;;25.60;16.33;;;;;;;;;;5018290;28;20044;-74
2021/06/23 05:14:37;;;;;;;22.10;16.98;;;;;;;;;;5058441;28;20404;-76
2021/06/23 05:17:04;;;;;;;24.20;17.30;;;;;;;;;;5043471;28;20655;-75
2021/06/23 05:19:29;;;;;;;21.65;15.48;;;;;;;;;;5038451;28;20040;-75
2021/06/23 05:21:58;;;;;;;18.20;12.95;;;;;;;;;;5039881;28;20025;-72
2021/06/23 05:24:23;;;;;;;15.90;12.25;;;;;;;;;;5040594;28;20028;-72
2021/06/23 05:26:49;;;;;;;15.50;12.43;;;;;;;;;;5047318;28;20112;-72
2021/06/23 05:29:14;;;;;;;14.05;11.65;;;;;;;;;;5038969;28;20135;-72
2021/06/23 05:31:39;;;;;;;13.57;10.48;;;;;;;;;;5045821;28;20039;-73
2021/06/23 05:34:05;;;;;;;16.92;10.55;;;;;;;;;;5040964;28;20066;-72
2021/06/23 05:36:30;;;;;;;13.77;11.02;;;;;;;;;;5042311;28;20037;-72
2021/06/23 05:38:56;;;;;;;18.67;11.23;;;;;;;;;;5045441;28;20036;-72
2021/06/23 05:41:21;;;;;;;14.77;10.73;;;;;;;;;;5035428;28;20032;-72
2021/06/23 05:43:47;;;;;;;12.88;10.38;;;;;;;;;;5039166;28;20021;-73
2021/06/23 05:46:12;;;;;;;13.88;10.90;;;;;;;;;;5039659;28;20537;-72
2021/06/23 05:48:37;;;;;;;13.50;9.88;;;;;;;;;;5045620;28;20033;-72
2021/06/23 05:51:07;;;;;;;12.85;10.32;;;;;;;;;;5045517;28;20033;-72
2021/06/23 05:53:32;;;;;;;11.93;8.07;;;;;;;;;;5059639;28;20116;-72
2021/06/23 05:55:58;;;;;;;14.07;8.18;;;;;;;;;;5059502;28;20100;-72
2021/06/23 05:58:23;;;;;;;12.25;8.27;;;;;;;;;;5050109;28;20030;-72
2021/06/23 06:00:49;;;;;;;9.43;5.70;;;;;;;;;;5045736;28;20494;-72
2021/06/23 06:03:14;;;;;;;7.05;5.65;;;;;;;;;;5060935;28;20050;-72
2021/06/23 06:05:40;;;;;;;8.25;5.28;;;;;;;;;;5059875;28;20071;-73
2021/06/23 06:08:05;;;;;;;8.02;4.28;;;;;;;;;;5051815;28;20033;-74
2021/06/23 06:10:33;;;;;;;6.00;4.55;;;;;;;;;;5038278;28;20415;-72
2021/06/23 06:12:58;;;;;;;6.00;3.92;;;;;;;;;;5044892;28;20033;-72
2021/06/23 06:15:24;;;;;;;7.20;4.15;;;;;;;;;;5037061;28;20033;-72
2021/06/23 06:17:49;;;;;;;5.65;3.67;;;;;;;;;;5040794;28;20025;-72
2021/06/23 06:20:14;;;;;;;6.07;3.50;;;;;;;;;;5040599;28;20021;-73
2021/06/23 06:22:40;;;;;;;5.85;3.90;;;;;;;;;;5044878;28;20079;-72
2021/06/23 06:25:06;;;;;;;10.35;3.83;;;;;;;;;;5030510;28;20052;-71
2021/06/23 06:27:31;;;;;;;6.65;3.72;;;;;;;;;;5030708;28;20032;-72
2021/06/23 06:29:56;;;;;;;5.40;3.47;;;;;;;;;;5025643;28;20030;-72
2021/06/23 06:32:22;;;;;;;5.28;3.08;;;;;;;;;;5023635;28;20192;-74
2021/06/23 06:34:47;;;;;;;5.95;3.45;;;;;;;;;;5025656;28;20099;-75
2021/06/23 06:37:13;;;;;;;8.15;6.15;;;;;;;;;;5023450;28;20025;-74
2021/06/23 06:39:38;;;;;;;9.02;7.30;;;;;;;;;;5025480;28;20124;-74
2021/06/23 06:42:04;;;;;;;12.20;9.07;;;;;;;;;;5025295;28;20033;-74
2021/06/23 06:44:31;;;;;;;10.38;7.18;;;;;;;;;;5024681;28;20040;-74
2021/06/23 06:46:57;;;;;;;9.88;7.47;;;;;;;;;;5025295;28;20028;-74
2021/06/23 06:49:26;;;;;;;8.77;7.20;;;;;;;;;;5022387;28;20034;-74
2021/06/23 06:51:52;;;;;;;10.05;6.95;;;;;;;;;;5023175;28;20030;-74
2021/06/23 06:54:17;;;;;;;9.82;7.03;;;;;;;;;;5025155;28;20059;-73
2021/06/23 06:56:42;;;;;;;9.50;6.20;;;;;;;;;;5030488;28;20037;-74
2021/06/23 06:59:09;;;;;;;8.73;6.90;;;;;;;;;;5023225;28;20404;-74
2021/06/23 07:01:34;;;;;;;9.23;6.15;;;;;;;;;;5023237;28;20099;-74
2021/06/23 07:03:59;;;;;;;9.35;6.13;;;;;;;;;;5025020;28;20038;-75
2021/06/23 07:06:24;;;;;;;6.38;5.30;;;;;;;;;;5023514;28;20075;-72
2021/06/23 07:08:50;;;;;;;8.13;5.32;;;;;;;;;;5024122;28;20076;-72
2021/06/23 07:11:15;;;;;;;7.25;5.07;;;;;;;;;;5024630;28;20105;-73
2021/06/23 07:13:40;;;;;;;7.47;5.15;;;;;;;;;;5023894;28;20033;-72
2021/06/23 07:16:06;;;;;;;8.35;6.10;;;;;;;;;;5024596;28;20033;-73
2021/06/23 07:18:31;;;;;;;9.60;5.53;;;;;;;;;;5023051;28;20498;-72
2021/06/23 07:20:57;;;;;;;14.52;5.93;;;;;;;;;;5023983;28;20029;-72
2021/06/23 07:23:22;;;;;;;10.20;6.03;;;;;;;;;;5023165;28;20021;-73
2021/06/23 07:25:47;;;;;;;9.52;5.18;;;;;;;;;;5022751;28;20029;-73
2021/06/23 07:28:15;;;;;;;9.05;5.47;;;;;;;;;;5023893;28;20035;-74
2021/06/23 07:30:45;;;;;;;7.93;4.68;;;;;;;;;;5022972;28;20048;-72
2021/06/23 07:33:11;;;;;;;6.93;4.85;;;;;;;;;;5009042;28;20049;-72
2021/06/23 07:38:21;;;;;;;6.28;4.68;;;;;;;;;;5020666;28;20036;-73
2021/06/23 07:41:00;;;;;;;6.40;4.90;;;;;;;;;;5021568;28;20029;-72
2021/06/23 07:43:26;;;;;;;5.40;3.85;;;;;;;;;;5022770;28;20013;-72
2021/06/23 07:45:53;;;;;;;7.95;4.97;;;;;;;;;;5022762;28;20025;-73
2021/06/23 07:48:29;;;;;;;8.85;6.40;;;;;;;;;;5023276;28;20071;-72
2021/06/23 07:51:09;;;;;;;8.50;6.07;;;;;;;;;;5019626;28;20043;-72
2021/06/23 07:56:31;;;;;;;11.53;7.93;;;;;;;;;;5023072;28;20029;-72
2021/06/23 08:14:37;;;;;;;9.40;6.50;;;;;;;;;;5015525;28;20033;-72
2021/06/23 08:17:02;;;;;;;9.93;6.57;;;;;;;;;;5021364;28;20040;-72
2021/06/23 08:19:27;;;;;;;12.05;7.63;;;;;;;;;;5018303;28;20037;-72
2021/06/23 08:21:53;;;;;;;8.15;5.75;;;;;;;;;;5015988;28;20029;-72
2021/06/23 08:24:18;;;;;;;10.15;5.70;;;;;;;;;;5015803;28;20025;-72
2021/06/23 08:26:43;;;;;;;8.82;6.43;;;;;;;;;;5020486;28;20061;-72
2021/06/23 08:29:09;;;;;;;9.32;6.05;;;;;;;;;;5022519;28;20017;-75
2021/06/23 08:31:34;;;;;;;8.02;5.32;;;;;;;;;;5022135;28;20068;-72
2021/06/23 08:33:59;;;;;;;7.75;5.22;;;;;;;;;;5022691;28;20024;-73
2021/06/23 08:36:25;;;;;;;7.93;5.68;;;;;;;;;;5021452;28;20040;-72
2021/06/23 08:38:51;;;;;;;8.93;6.93;;;;;;;;;;5022700;28;20023;-72
2021/06/23 08:41:16;;;;;;;9.75;7.25;;;;;;;;;;5022877;28;20032;-72
2021/06/23 08:43:42;;;;;;;8.45;6.20;;;;;;;;;;5022886;28;20051;-72
2021/06/23 08:46:07;;;;;;;9.32;6.32;;;;;;;;;;5029119;28;20128;-72
2021/06/23 08:48:32;;;;;;;7.35;5.80;;;;;;;;;;5019315;28;20029;-72
2021/06/23 08:51:07;;;;;;;9.25;6.13;;;;;;;;;;5022481;28;20025;-72
2021/06/23 08:53:34;;;;;;;7.88;6.03;;;;;;;;;;5023120;28;20021;-72
2021/06/23 08:56:00;;;;;;;8.43;6.45;;;;;;;;;;5022006;28;20041;-72
2021/06/23 08:58:25;;;;;;;9.45;6.65;;;;;;;;;;5021767;28;20033;-75
2021/06/23 09:00:53;;;;;;;9.23;6.60;;;;;;;;;;5022620;28;20053;-72
2021/06/23 09:03:18;;;;;;;7.70;6.32;;;;;;;;;;5021397;28;20112;-72
2021/06/23 09:05:48;;;;;;;7.93;5.53;;;;;;;;;;5022357;28;20112;-72
2021/06/23 09:08:15;;;;;;;7.55;5.40;;;;;;;;;;5022006;28;20040;-73
2021/06/23 09:10:41;;;;;;;11.70;5.72;;;;;;;;;;5023019;28;20025;-72
2021/06/23 09:13:09;;;;;;;6.72;4.97;;;;;;;;;;5022141;28;20079;-72
2021/06/23 09:15:54;;;;;;;6.13;4.90;;;;;;;;;;5023005;28;20041;-72
2021/06/23 09:18:21;;;;;;;6.40;4.80;;;;;;;;;;5020851;28;20196;-72
2021/06/23 09:20:50;;;;;;;7.03;4.45;;;;;;;;;;5021335;28;20385;-72
2021/06/23 09:23:16;;;;;;;5.85;4.05;;;;;;;;;;5022671;28;20657;-73
2021/06/23 09:25:45;;;;;;;6.93;4.63;;;;;;;;;;5017668;28;20049;-72
2021/06/23 09:28:16;;;;;;;9.65;4.10;;;;;;;;;;5021808;28;20022;-72
2021/06/23 09:30:44;;;;;;;5.75;4.25;;;;;;;;;;5018747;28;20141;-73
2021/06/23 09:33:17;;;;;;;5.40;3.75;;;;;;;;;;5016858;28;20475;-74
2021/06/23 09:35:48;;;;;;;8.05;5.10;;;;;;;;;;5020603;28;20116;-74
2021/06/23 09:38:38;;;;;;;7.35;4.80;;;;;;;;;;5016179;28;20045;-74
2021/06/23 09:41:20;;;;;;;7.23;4.80;;;;;;;;;;5021615;28;20021;-74
2021/06/23 09:43:47;;;;;;;;;;;;;;;;;;5021120;28;20041;-74
2021/06/23 09:46:22;;;;;;;5.85;4.50;;;;;;;;;;5022317;28;20303;-74
2021/06/23 09:48:49;;;;;;;7.38;5.32;;;;;;;;;;5020751;28;20021;-74
2021/06/23 09:51:20;;;;;;;6.25;4.47;;;;;;;;;;5022691;28;20079;-74
2021/06/23 09:53:48;;;;;;;7.03;4.40;;;;;;;;;;5018373;28;20033;-74
2021/06/23 09:56:31;;;;;;;8.88;4.45;;;;;;;;;;5014508;28;20067;-74
2021/06/23 09:58:57;;;;;;;5.65;4.05;;;;;;;;;;5016474;28;20026;-74
2021/06/23 10:01:24;;;;;;;5.03;3.97;;;;;;;;;;5023175;28;20029;-74
2021/06/23 10:04:00;;;;;;;6.40;4.68;;;;;;;;;;5021115;28;20155;-74
2021/06/23 10:06:28;;;;;;;6.30;4.57;;;;;;;;;;5029039;28;20038;-74
2021/06/23 10:09:21;;;;;;;6.30;4.60;;;;;;;;;;5019261;28;20025;-73
2021/06/23 10:11:49;;;;;;;7.03;4.35;;;;;;;;;;5021228;28;20119;-75
2021/06/23 10:14:14;;;;;;;5.28;3.63;;;;;;;;;;5027626;28;20021;-75
2021/06/23 10:16:40;;;;;;;6.43;3.70;;;;;;;;;;5020097;28;20824;-75
2021/06/23 10:19:06;;;;;;;4.65;3.72;;;;;;;;;;5021652;28;20040;-75
2021/06/23 10:21:33;;;;;;;7.22;4.20;;;;;;;;;;5024255;28;20033;-74
2021/06/23 10:23:59;;;;;;;7.38;3.60;;;;;;;;;;5023792;28;20017;-75
2021/06/23 10:26:27;;;;;;;6.07;3.58;;;;;;;;;;5025102;28;20033;-76
2021/06/23 10:28:54;;;;;;;5.68;3.72;;;;;;;;;;5025245;28;20058;-76
2021/06/23 10:31:25;;;;;;;6.07;3.60;;;;;;;;;;5021905;28;20033;-76
2021/06/23 10:33:51;;;;;;;5.32;3.55;;;;;;;;;;5019102;28;20025;-77
2021/06/23 10:36:17;;;;;;;6.60;4.80;;;;;;;;;;5020189;28;20045;-76
2021/06/23 10:38:44;;;;;;;6.93;4.28;;;;;;;;;;5022482;28;20037;-76
2021/06/23 10:41:11;;;;;;;6.35;4.30;;;;;;;;;;5025141;28;20719;-76
2021/06/23 10:43:36;;;;;;;5.97;4.20;;;;;;;;;;5023811;28;20032;-76
2021/06/23 10:46:02;;;;;;;5.53;3.60;;;;;;;;;;5023166;28;20116;-76
2021/06/23 10:48:27;;;;;;;6.22;2.88;;;;;;;;;;5023278;28;20048;-76
2021/06/23 10:50:53;;;;;;;4.75;3.38;;;;;;;;;;5021288;28;20033;-77
2021/06/23 10:53:35;;;;;;;12.50;6.65;;;;;;;;;;5022858;28;20016;-76
2021/06/23 10:56:05;;;;;;;5.20;3.85;;;;;;;;;;5023014;28;21271;-76
2021/06/23 10:58:32;;;;;;;9.23;3.70;;;;;;;;;;5020935;28;20029;-76
2021/06/23 11:01:16;;;;;;;5.07;3.40;;;;;;;;;;5023306;28;20029;-76
2021/06/23 11:04:10;;;;;;;4.82;3.13;;;;;;;;;;5017847;28;20109;-76
2021/06/23 11:06:43;;;;;;;4.38;2.92;;;;;;;;;;5018788;28;20045;-75
2021/06/23 11:09:28;;;;;;;5.10;3.00;;;;;;;;;;5022164;28;20032;-75
2021/06/23 11:11:55;;;;;;;6.18;3.60;;;;;;;;;;5017225;28;20030;-75
2021/06/23 11:14:22;;;;;;;6.38;3.42;;;;;;;;;;5013821;28;20022;-75
2021/06/23 11:16:48;;;;;;;4.70;3.50;;;;;;;;;;5015825;28;20040;-76
2021/06/23 11:19:14;;;;;;;5.70;3.00;;;;;;;;;;5022086;28;20546;-76
2021/06/23 11:21:45;;;;;;;5.00;2.50;;;;;;;;;;5020548;28;20140;-76
2021/06/23 11:24:16;;;;;;;5.50;2.70;;;;;;;;;;5020290;28;20057;-76
2021/06/23 11:26:41;;;;;;;4.73;2.50;;;;;;;;;;5020196;28;20060;-76
2021/06/23 11:29:09;;;;;;;3.53;2.33;;;;;;;;;;5018069;28;20029;-75
2021/06/23 11:31:45;;;;;;;6.28;3.63;;;;;;;;;;5022670;28;20848;-75
2021/06/23 11:34:11;;;;;;;5.47;2.70;;;;;;;;;;5022547;28;20195;-76
2021/06/23 11:36:37;;;;;;;4.30;2.83;;;;;;;;;;5020985;28;20041;-75
2021/06/23 11:39:05;;;;;;;5.07;2.60;;;;;;;;;;5018390;28;20594;-76
2021/06/23 11:41:31;;;;;;;4.72;3.15;;;;;;;;;;5019516;28;20373;-76
2021/06/23 11:43:56;;;;;;;4.43;3.17;;;;;;;;;;5023305;28;20029;-76
2021/06/23 11:46:22;;;;;;;4.43;2.63;;;;;;;;;;5023748;28;20029;-76
2021/06/23 11:48:47;;;;;;;4.95;2.20;;;;;;;;;;5020349;28;20029;-76
2021/06/23 11:51:13;;;;;;;5.15;2.47;;;;;;;;;;5021423;28;20099;-75
2021/06/23 11:53:39;;;;;;;5.90;2.65;;;;;;;;;;5021219;28;20037;-75
2021/06/23 11:56:05;;;;;;;3.90;2.10;;;;;;;;;;5022563;28;20029;-76
2021/06/23 11:58:31;;;;;;;3.35;2.05;;;;;;;;;;5018871;28;20033;-76
2021/06/23 12:00:56;;;;;;;4.65;1.90;;;;;;;;;;5024008;28;20083;-76
2021/06/23 12:03:22;;;;;;;4.38;2.03;;;;;;;;;;5023708;28;20025;-78
2021/06/23 12:05:48;;;;;;;3.75;2.35;;;;;;;;;;5018664;28;20025;-74
2021/06/23 12:08:14;;;;;;;5.78;2.33;;;;;;;;;;5019705;28;20400;-75
2021/06/23 12:10:41;;;;;;;4.13;2.38;;;;;;;;;;5020888;28;20032;-76
2021/06/23 12:13:07;;;;;;;4.60;2.50;;;;;;;;;;5013406;28;20026;-76
2021/06/23 12:15:33;;;;;;;4.80;2.55;;;;;;;;;;5019055;28;20037;-76
2021/06/23 12:18:01;;;;;;;5.82;2.45;;;;;;;;;;5021037;28;20454;-75
2021/06/23 12:20:30;;;;;;;7.70;3.03;;;;;;;;;;5021264;28;20021;-76
2021/06/23 12:23:00;;;;;;;5.57;2.63;;;;;;;;;;5019125;28;20028;-76
2021/06/23 12:25:37;;;;;;;4.82;2.95;;;;;;;;;;5018094;28;20029;-77
2021/06/23 12:28:04;;;;;;;7.45;2.53;;;;;;;;;;5019948;28;20582;-76
2021/06/23 12:30:30;;;;;;;4.13;2.10;;;;;;;;;;5019925;28;20040;-78
2021/06/23 12:32:58;;;;;;;6.90;2.88;;;;;;;;;;5019011;28;20029;-74
2021/06/23 12:35:24;;;;;;;5.25;2.53;;;;;;;;;;5020894;28;20056;-75
2021/06/23 12:37:50;;;;;;;7.88;3.60;;;;;;;;;;5019502;28;20094;-76
2021/06/23 12:40:17;;;;;;;10.68;5.60;;;;;;;;;;5017261;28;20439;-74
2021/06/23 12:42:42;;;;;;;9.15;4.93;;;;;;;;;;5020149;28;20347;-73
2021/06/23 12:45:08;;;;;;;8.82;5.18;;;;;;;;;;5016570;28;20561;-75
2021/06/23 12:47:35;;;;;;;4.68;2.28;;;;;;;;;;4999512;28;20080;-72
2021/06/23 12:50:00;;;;;;;3.40;1.40;;;;;;;;;;5000532;28;21385;-72
2021/06/23 12:52:27;;;;;;;7.80;5.60;;;;;;;;;;4999340;28;20034;-73
2021/06/23 12:54:53;;;;;;;5.20;2.65;;;;;;;;;;5000937;28;20361;-73
2021/06/23 12:57:18;;;;;;;6.38;2.83;;;;;;;;;;4994818;28;20141;-72
2021/06/23 12:59:44;;;;;;;6.30;2.47;;;;;;;;;;4999987;28;20038;-73
2021/06/23 13:02:09;;;;;;;5.63;2.88;;;;;;;;;;5001514;28;20132;-72
2021/06/23 13:04:35;;;;;;;3.40;1.42;;;;;;;;;;5000826;28;20102;-71
2021/06/23 13:07:00;;;;;;;5.03;1.67;;;;;;;;;;4996227;28;20446;-71
2021/06/23 13:09:26;;;;;;;2.50;1.23;;;;;;;;;;5000855;28;20527;-73
2021/06/23 13:11:51;;;;;;;4.88;1.92;;;;;;;;;;5000655;28;20040;-73
2021/06/23 13:14:16;;;;;;;1.92;1.23;;;;;;;;;;4998788;28;20473;-72
2021/06/23 13:16:44;;;;;;;6.05;1.35;;;;;;;;;;4996663;28;20038;-73
2021/06/23 13:19:09;;;;;;;2.85;1.23;;;;;;;;;;5001513;28;20489;-71
2021/06/23 13:21:34;;;;;;;2.08;1.25;;;;;;;;;;5018180;28;20057;-72
2021/06/23 13:24:00;;;;;;;1.75;0.90;;;;;;;;;;5015431;28;20133;-71
2021/06/23 13:26:25;;;;;;;1.95;0.98;;;;;;;;;;5017645;28;20017;-72
2021/06/23 13:28:51;;;;;;;1.25;0.85;;;;;;;;;;5012539;28;20026;-72
2021/06/23 13:31:17;;;;;;;4.90;0.90;;;;;;;;;;5021805;28;20038;-73
2021/06/23 13:33:42;;;;;;;3.25;0.80;;;;;;;;;;5015438;28;20422;-72
2021/06/23 13:36:08;;;;;;;1.48;0.73;;;;;;;;;;5019147;28;20033;-72
2021/06/23 13:38:34;;;;;;;4.38;1.17;;;;;;;;;;5019638;28;20095;-72
2021/06/23 13:41:00;;;;;;;3.03;0.82;;;;;;;;;;5009062;28;20035;-73
2021/06/23 13:43:26;;;;;;;4.07;0.90;;;;;;;;;;5020822;28;20033;-73
2021/06/23 13:45:53;;;;;;;1.73;0.80;;;;;;;;;;5024438;28;20080;-72
2021/06/23 13:48:19;;;;;;;1.60;1.00;;;;;;;;;;5024179;28;20029;-72
2021/06/23 13:50:46;;;;;;;2.63;0.90;;;;;;;;;;5013470;28;20034;-72
2021/06/23 13:53:12;;;;;;;2.78;1.17;;;;;;;;;;5021527;28;20095;-72
2021/06/23 13:55:38;;;;;;;3.10;1.23;;;;;;;;;;5026256;28;20049;-73
2021/06/23 13:58:04;;;;;;;2.85;1.33;;;;;;;;;;5024920;28;20025;-72
2021/06/23 14:00:36;;;;;;;5.78;1.75;;;;;;;;;;5025969;28;20166;-72
2021/06/23 14:03:03;;;;;;;6.10;2.80;;;;;;;;;;5026063;28;20095;-72
2021/06/23 14:05:29;;;;;;;5.05;3.47;;;;;;;;;;5025866;28;20034;-72
2021/06/23 14:07:54;;;;;;;7.65;3.80;;;;;;;;;;5025028;28;20064;-72
2021/06/23 14:10:21;;;;;;;5.93;3.95;;;;;;;;;;5025432;28;20030;-72
2021/06/23 14:12:46;;;;;;;6.18;4.20;;;;;;;;;;5019238;28;20079;-72
2021/06/23 14:15:13;;;;;;;8.93;4.30;;;;;;;;;;5005626;28;20038;-72
2021/06/23 14:17:38;;;;;;;7.70;4.40;;;;;;;;;;5005846;28;20436;-71
2021/06/23 14:20:07;;;;;;;9.88;5.32;;;;;;;;;;5009647;28;20021;-73
2021/06/23 14:22:33;;;;;;;7.18;5.03;;;;;;;;;;5026907;28;20026;-72
2021/06/23 14:24:59;;;;;;;8.88;5.22;;;;;;;;;;5027816;28;20554;-73
2021/06/23 14:27:26;;;;;;;7.18;5.10;;;;;;;;;;5026428;28;20041;-72
2021/06/23 14:29:51;;;;;;;7.80;5.15;;;;;;;;;;5025585;28;20021;-73
2021/06/23 14:32:17;;;;;;;11.93;5.32;;;;;;;;;;5027732;28;20565;-73
2021/06/23 14:34:42;;;;;;;7.18;4.53;;;;;;;;;;5025530;28;20040;-72
2021/06/23 14:37:08;;;;;;;7.60;4.90;;;;;;;;;;5027207;28;20033;-72
2021/06/23 14:39:33;;;;;;;6.82;5.00;;;;;;;;;;5026804;28;20037;-72
2021/06/23 14:41:58;;;;;;;7.15;5.00;;;;;;;;;;5026559;28;20029;-73
2021/06/23 14:44:24;;;;;;;7.18;5.78;;;;;;;;;;5019591;28;20021;-72
2021/06/23 14:46:49;;;;;;;7.93;5.88;;;;;;;;;;5006304;28;20350;-73
2021/06/23 14:49:14;;;;;;;8.57;5.65;;;;;;;;;;5007309;28;20488;-72
2021/06/23 14:51:40;;;;;;;5.90;5.30;;;;;;;;;;5006256;28;20546;-72
2021/06/23 14:54:05;;;;;;;9.82;5.50;;;;;;;;;;5021442;28;20021;-72